< < Back
Terminal Aerodrome Forecast


Current Version              Previous Versions:   1  2  3  4  5  6  7  8  9  

Terminal Aerodrome Forecast

690
FTUS44 KMOB 271120
TAFPNS
TAF
KPNS 271120Z 2712/2812 06004KT P6SM BKN250
     FM271500 16014G20KT P6SM SCT050 SCT100 BKN250
     FM272300 15008KT P6SM BKN250
     FM280600 11004KT P6SM SCT250=

Latest METAR

740
SAUS70 KWBC 280000 RRI
MTRPNS
METAR KPNS 272353Z 16012KT 10SM FEW024 26/19 A2997 RMK AO2 SLP149
T02560194 10294 20256 53001


USA.gov is the U.S. government's official web portal to all federal, state and local government web resources and services.